Time;durP1;ratioP1;P1;durP2;ratioP2;P2;SDS_P1;SDS_P2;PMS_P1;PMS_P2;Temp;Humidity;BMP_temperature;BMP_pressure;BME280_temperature;BME280_humidity;BME280_pressure;Samples;Min_cycle;Max_cycle;Signal;HPM_P1;HPM_P2
2021/10/21 00:02:31;;;;;;;;;;;;;;;-144.51;100.00;69251.94;4866222;29;19916;-61
2021/10/21 00:05:15;;;;;;;;;;;;;;;-144.51;100.00;69251.94;4861096;29;19920;-61
2021/10/21 00:08:00;;;;;;;;;;;;;;;-144.51;100.00;69251.94;4859886;29;19916;-62
2021/10/21 00:10:46;;;;;;;;;;;;;;;-144.51;100.00;69251.94;4862600;29;20372;-61
2021/10/21 00:13:31;;;;;;;;;;;;;;;-144.51;100.00;69251.94;4856464;29;20261;-61
2021/10/21 00:16:16;;;;;;;;;;;;;;;-144.51;100.00;69251.94;4861345;29;19916;-62
2021/10/21 00:19:01;;;;;;;;;;;;;;;-144.51;100.00;69251.94;4859923;29;19920;-61
2021/10/21 00:21:48;;;;;;;;;;;;;;;-144.51;100.00;69251.94;4862704;29;19916;-62
2021/10/21 00:24:33;;;;;;;;;;;;;;;-144.51;100.00;69251.94;4880731;29;20304;-62
2021/10/21 00:27:18;;;;;;;;;;;;;;;-144.51;100.00;69251.94;4861515;29;19916;-61
2021/10/21 00:30:02;;;;;;;;;;;;;;;-144.51;100.00;69251.94;4870760;29;19916;-62
2021/10/21 00:32:47;;;;;;;;;;;;;;;-144.51;100.00;69251.94;4843477;29;20365;-61
2021/10/21 00:35:32;;;;;;;;;;;;;;;-144.51;100.00;69251.94;4843295;29;20374;-62
2021/10/21 00:38:16;;;;;;;;;;;;;;;-144.51;100.00;69251.94;4861871;29;19920;-62
2021/10/21 00:41:00;;;;;;;;;;;;;;;-144.51;100.00;69251.94;4862312;29;19916;-62
2021/10/21 00:43:45;;;;;;;;;;;;;;;-144.51;100.00;69251.94;4862155;29;19916;-62
2021/10/21 00:46:30;;;;;;;;;;;;;;;-144.51;100.00;69251.94;4861476;29;19916;-62
2021/10/21 00:49:14;;;;;;;;;;;;;;;-144.51;100.00;69251.94;4861883;29;19924;-61
2021/10/21 00:51:58;;;;;;;;;;;;;;;-144.51;100.00;69251.94;4862376;29;20390;-62
2021/10/21 00:54:44;;;;;;;;;;;;;;;-144.51;100.00;69251.94;4862140;29;19916;-61
2021/10/21 00:57:28;;;;;;;;;;;;;;;-144.51;100.00;69251.94;4859936;29;20265;-61
2021/10/21 01:00:12;;;;;;;;;;;;;;;-144.51;100.00;69251.94;4861214;29;20377;-61
2021/10/21 01:02:57;;;;;;;;;;;;;;;-144.51;100.00;69251.94;4861783;29;19942;-62
2021/10/21 01:05:42;;;;;;;;;;;;;;;-144.51;100.00;69251.94;4861800;29;19916;-62
2021/10/21 01:08:27;;;;;;;;;;;;;;;-144.51;100.00;69251.94;4861135;29;19916;-61
2021/10/21 01:11:14;;;;;;;;;;;;;;;-144.51;100.00;69251.94;4861630;29;19916;-62
2021/10/21 01:13:59;;;;;;;;;;;;;;;-144.51;100.00;69251.94;4861573;29;19920;-61
2021/10/21 01:16:44;;;;;;;;;;;;;;;-144.51;100.00;69251.94;4849790;29;19923;-62
2021/10/21 01:19:28;;;;;;;;;;;;;;;-144.51;100.00;69251.94;4861493;29;19924;-62
2021/10/21 01:22:13;;;;;;;;;;;;;;;-144.51;100.00;69251.94;4861574;29;19916;-62
2021/10/21 01:24:57;;;;;;;;;;;;;;;-144.51;100.00;69251.94;4861437;29;19916;-62
2021/10/21 01:27:42;;;;;;;;;;;;;;;-144.51;100.00;69251.94;4859715;29;19916;-63
2021/10/21 01:30:28;;;;;;;;;;;;;;;-144.51;100.00;69251.94;4853732;29;19916;-62
2021/10/21 01:33:13;;;;;;;;;;;;;;;-144.51;100.00;69251.94;4861281;29;19916;-62
2021/10/21 01:35:57;;;;;;;;;;;;;;;-144.51;100.00;69251.94;4843808;29;19917;-62
2021/10/21 01:38:42;;;;;;;;;;;;;;;-144.51;100.00;69251.94;4854472;29;20288;-63
2021/10/21 01:41:27;;;;;;;;;;;;;;;-144.51;100.00;69251.94;4853663;29;19920;-62
2021/10/21 01:44:11;;;;;;;;;;;;;;;-144.51;100.00;69251.94;4859727;29;19916;-62
2021/10/21 01:46:56;;;;;;;;;;;;;;;-144.51;100.00;69251.94;4860596;29;20292;-62
2021/10/21 01:49:40;;;;;;;;;;;;;;;-144.51;100.00;69251.94;4860357;29;20380;-62
2021/10/21 01:52:24;;;;;;;;;;;;;;;-144.51;100.00;69251.94;4866260;29;19916;-62
2021/10/21 01:55:10;;;;;;;;;;;;;;;-144.51;100.00;69251.94;4860762;29;19920;-62
2021/10/21 01:57:54;;;;;;;;;;;;;;;-144.51;100.00;69251.94;4859761;29;20380;-61
2021/10/21 02:00:39;;;;;;;;;;;;;;;-144.51;100.00;69251.94;4860085;29;19924;-62
2021/10/21 02:03:24;;;;;;;;;;;;;;;-144.51;100.00;69251.94;4842320;29;19921;-62
2021/10/21 02:06:08;;;;;;;;;;;;;;;-144.51;100.00;69251.94;4857144;29;19916;-62
2021/10/21 02:08:52;;;;;;;;;;;;;;;-144.51;100.00;69251.94;4859596;29;19916;-62
2021/10/21 02:11:37;;;;;;;;;;;;;;;-144.51;100.00;69251.94;4855486;29;19916;-62
2021/10/21 02:14:21;;;;;;;;;;;;;;;-144.51;100.00;69251.94;4860777;29;20260;-62
2021/10/21 02:17:07;;;;;;;;;;;;;;;-144.51;100.00;69251.94;4860440;29;19915;-62
2021/10/21 02:19:52;;;;;;;;;;;;;;;-144.51;100.00;69251.94;4859057;29;19920;-62
2021/10/21 02:22:38;;;;;;;;;;;;;;;-144.51;100.00;69251.94;4855043;29;19958;-63
2021/10/21 02:25:22;;;;;;;;;;;;;;;-144.51;100.00;69251.94;4860371;29;20372;-62
2021/10/21 02:28:06;;;;;;;;;;;;;;;-144.51;100.00;69251.94;4860358;29;20277;-62
2021/10/21 02:30:51;;;;;;;;;;;;;;;-144.51;100.00;69251.94;4859666;29;19916;-62
2021/10/21 02:33:36;;;;;;;;;;;;;;;-144.51;100.00;69251.94;4854709;29;19916;-62
2021/10/21 02:36:20;;;;;;;;;;;;;;;-144.51;100.00;69251.94;4860128;29;19915;-62
2021/10/21 02:39:05;;;;;;;;;;;;;;;-144.51;100.00;69251.94;4860398;29;19920;-62
2021/10/21 02:41:49;;;;;;;;;;;;;;;-144.51;100.00;69251.94;4865298;29;19920;-62
2021/10/21 02:44:34;;;;;;;;;;;;;;;-144.51;100.00;69251.94;4860280;29;19916;-62
2021/10/21 02:47:18;;;;;;;;;;;;;;;-144.51;100.00;69251.94;4860184;29;19916;-62
2021/10/21 02:50:03;;;;;;;;;;;;;;;-144.51;100.00;69251.94;4857393;29;19921;-62
2021/10/21 02:52:48;;;;;;;;;;;;;;;-144.51;100.00;69251.94;4857411;29;19924;-62
2021/10/21 02:55:32;;;;;;;;;;;;;;;-144.51;100.00;69251.94;4843538;29;19916;-62
2021/10/21 02:58:17;;;;;;;;;;;;;;;-144.51;100.00;69251.94;4863075;29;19916;-62
2021/10/21 03:01:01;;;;;;;;;;;;;;;-144.51;100.00;69251.94;4863604;29;19919;-62
2021/10/21 03:03:45;;;;;;;;;;;;;;;-144.51;100.00;69251.94;4859304;29;19916;-62
2021/10/21 03:06:30;;;;;;;;;;;;;;;-144.51;100.00;69251.94;4857592;29;19930;-61
2021/10/21 03:09:14;;;;;;;;;;;;;;;-144.51;100.00;69251.94;4863670;29;19916;-61
2021/10/21 03:11:58;;;;;;;;;;;;;;;-144.51;100.00;69251.94;4862872;29;20296;-62
2021/10/21 03:14:43;;;;;;;;;;;;;;;-144.51;100.00;69251.94;4863550;29;19916;-62
2021/10/21 03:17:27;;;;;;;;;;;;;;;-144.51;100.00;69251.94;4861338;29;19920;-62
2021/10/21 03:20:12;;;;;;;;;;;;;;;-144.51;100.00;69251.94;4858841;29;20285;-62
2021/10/21 03:22:56;;;;;;;;;;;;;;;-144.51;100.00;69251.94;4862805;29;19916;-62
2021/10/21 03:25:41;;;;;;;;;;;;;;;-144.51;100.00;69251.94;4863434;29;20285;-61
2021/10/21 03:28:26;;;;;;;;;;;;;;;-144.51;100.00;69251.94;4863390;29;19916;-61
2021/10/21 03:31:11;;;;;;;;;;;;;;;-144.51;100.00;69251.94;4863446;29;19916;-61
2021/10/21 03:33:55;;;;;;;;;;;;;;;-144.51;100.00;69251.94;4861102;29;19916;-61
2021/10/21 03:36:40;;;;;;;;;;;;;;;-144.51;100.00;69251.94;4849504;29;20269;-61
2021/10/21 03:39:25;;;;;;;;;;;;;;;-144.51;100.00;69251.94;4862849;29;19920;-62
2021/10/21 03:42:10;;;;;;;;;;;;;;;-144.51;100.00;69251.94;4862995;29;19920;-62
2021/10/21 03:44:57;;;;;;;;;;;;;;;-144.51;100.00;69251.94;4863123;29;19916;-61
2021/10/21 03:47:41;;;;;;;;;;;;;;;-144.51;100.00;69251.94;4863206;29;19915;-62
2021/10/21 03:50:28;;;;;;;;;;;;;;;-144.51;100.00;69251.94;4853399;29;19916;-62
2021/10/21 03:53:13;;;;;;;;;;;;;;;-144.51;100.00;69251.94;4860353;29;19916;-62
2021/10/21 03:55:57;;;;;;;;;;;;;;;-144.51;100.00;69251.94;4859784;29;19916;-62
2021/10/21 03:58:41;;;;;;;;;;;;;;;-144.51;100.00;69251.94;4863092;29;19916;-62
2021/10/21 04:01:26;;;;;;;;;;;;;;;-144.51;100.00;69251.94;4870016;29;19919;-61
2021/10/21 04:04:11;;;;;;;;;;;;;;;-144.51;100.00;69251.94;4861311;29;19916;-61
2021/10/21 04:06:55;;;;;;;;;;;;;;;-144.51;100.00;69251.94;4851732;29;19920;-62
2021/10/21 04:09:40;;;;;;;;;;;;;;;-144.51;100.00;69251.94;4855218;29;20575;-62
2021/10/21 04:12:24;;;;;;;;;;;;;;;-144.51;100.00;69251.94;4860193;29;19916;-61
2021/10/21 04:15:09;;;;;;;;;;;;;;;-144.51;100.00;69251.94;4874481;29;19916;-61
2021/10/21 04:17:54;;;;;;;;;;;;;;;-144.51;100.00;69251.94;4904129;23;19927;-82
2021/10/21 04:20:39;;;;;;;;;;;;;;;-144.51;100.00;69251.94;4905332;29;20397;-82
2021/10/21 04:23:23;;;;;;;;;;;;;;;-144.51;100.00;69251.94;4899949;29;19915;-82
2021/10/21 04:26:08;;;;;;;;;;;;;;;-144.51;100.00;69251.94;4892180;29;19915;-82
2021/10/21 04:28:59;;;;;;;;;;;;;;;-144.51;100.00;69251.94;4899993;29;19916;-83
2021/10/21 04:31:43;;;;;;;;;;;;;;;-144.51;100.00;69251.94;4903834;29;19915;-83
2021/10/21 04:34:28;;;;;;;;;;;;;;;-144.51;100.00;69251.94;4891778;29;19915;-81
2021/10/21 04:37:12;;;;;;;;;;;;;;;-144.51;100.00;69251.94;4890227;29;19920;-81
2021/10/21 04:39:56;;;;;;;;;;;;;;;-144.51;100.00;69251.94;4886443;29;19915;-82
2021/10/21 04:42:41;;;;;;;;;;;;;;;-144.51;100.00;69251.94;4889629;29;19920;-81
2021/10/21 04:45:25;;;;;;;;;;;;;;;-144.51;100.00;69251.94;4899510;29;19919;-82
2021/10/21 04:48:09;;;;;;;;;;;;;;;-144.51;100.00;69251.94;4899680;29;19915;-82
2021/10/21 04:50:55;;;;;;;;;;;;;;;-144.51;100.00;69251.94;4899779;29;19915;-82
2021/10/21 04:53:39;;;;;;;;;;;;;;;-144.51;100.00;69251.94;4892206;29;19916;-83
2021/10/21 04:56:24;;;;;;;;;;;;;;;-144.51;100.00;69251.94;4904813;29;20393;-83
2021/10/21 04:59:08;;;;;;;;;;;;;;;-144.51;100.00;69251.94;4891979;29;19915;-82
2021/10/21 05:01:53;;;;;;;;;;;;;;;-144.51;100.00;69251.94;4904638;29;19915;-82
2021/10/21 05:04:37;;;;;;;;;;;;;;;-144.51;100.00;69251.94;4898541;29;19919;-83
2021/10/21 05:07:56;;;;;;;;;;;;;;;-144.51;100.00;69251.94;4900049;29;19915;-82
2021/10/21 05:10:40;;;;;;;;;;;;;;;-144.51;100.00;69251.94;4893430;29;19919;-83
2021/10/21 05:13:25;;;;;;;;;;;;;;;-144.51;100.00;69251.94;4904487;29;19938;-83
2021/10/21 05:16:09;;;;;;;;;;;;;;;-144.51;100.00;69251.94;4896591;29;19915;-82
2021/10/21 05:18:53;;;;;;;;;;;;;;;-144.51;100.00;69251.94;4898336;29;20285;-83
2021/10/21 05:21:38;;;;;;;;;;;;;;;-144.51;100.00;69251.94;4904674;29;19915;-82
2021/10/21 05:24:22;;;;;;;;;;;;;;;-144.51;100.00;69251.94;4897461;29;20372;-82
2021/10/21 05:27:08;;;;;;;;;;;;;;;-144.51;100.00;69251.94;4901436;29;19919;-84
2021/10/21 05:29:53;;;;;;;;;;;;;;;-144.51;100.00;69251.94;4884197;29;19915;-84
2021/10/21 05:32:37;;;;;;;;;;;;;;;-144.51;100.00;69251.94;4902971;29;20288;-85
2021/10/21 05:35:22;;;;;;;;;;;;;;;-144.51;100.00;69251.94;4894126;29;19915;-86
2021/10/21 05:38:07;;;;;;;;;;;;;;;-144.51;100.00;69251.94;4888956;29;19919;-85
2021/10/21 05:40:51;;;;;;;;;;;;;;;-144.51;100.00;69251.94;4906520;29;19927;-84
2021/10/21 05:43:36;;;;;;;;;;;;;;;-144.51;100.00;69251.94;4905922;29;19916;-84
2021/10/21 05:46:21;;;;;;;;;;;;;;;-144.51;100.00;69251.94;4888626;29;20380;-84
2021/10/21 05:49:05;;;;;;;;;;;;;;;-144.51;100.00;69251.94;4893824;29;19921;-83
2021/10/21 05:51:49;;;;;;;;;;;;;;;-144.51;100.00;69251.94;4881636;29;19915;-82
2021/10/21 05:54:34;;;;;;;;;;;;;;;-144.51;100.00;69251.94;4887582;29;19916;-82
2021/10/21 05:57:18;;;;;;;;;;;;;;;-144.51;100.00;69251.94;4880549;29;19920;-84
2021/10/21 06:00:04;;;;;;;;;;;;;;;-144.51;100.00;69251.94;4886893;29;20298;-82
2021/10/21 06:02:56;;;;;;;;;;;;;;;-144.51;100.00;69251.94;4881413;29;19927;-83
2021/10/21 06:05:40;;;;;;;;;;;;;;;-144.51;100.00;69251.94;4895390;29;20521;-81
2021/10/21 06:08:24;;;;;;;;;;;;;;;-144.51;100.00;69251.94;4893788;29;19919;-79
2021/10/21 06:11:09;;;;;;;;;;;;;;;-144.51;100.00;69251.94;4896291;29;19916;-80
2021/10/21 06:13:53;;;;;;;;;;;;;;;-144.51;100.00;69251.94;4887203;29;19915;-79
2021/10/21 06:16:40;;;;;;;;;;;;;;;-144.51;100.00;69251.94;4898463;29;19915;-78
2021/10/21 06:19:25;;;;;;;;;;;;;;;-144.51;100.00;69251.94;4902273;29;20396;-79
2021/10/21 06:22:12;;;;;;;;;;;;;;;-144.51;100.00;69251.94;4897530;29;19916;-81
2021/10/21 06:24:56;;;;;;;;;;;;;;;-144.51;100.00;69251.94;4898565;29;19915;-80
2021/10/21 06:27:41;;;;;;;;;;;;;;;-144.51;100.00;69251.94;4902239;29;19915;-80
2021/10/21 06:30:25;;;;;;;;;;;;;;;-144.51;100.00;69251.94;4901972;29;19919;-81
2021/10/21 06:33:10;;;;;;;;;;;;;;;-144.51;100.00;69251.94;4895358;29;19915;-78
2021/10/21 06:35:54;;;;;;;;;;;;;;;-144.51;100.00;69251.94;4900765;29;19915;-81
2021/10/21 06:38:39;;;;;;;;;;;;;;;-144.51;100.00;69251.94;4892622;29;20389;-80
2021/10/21 06:41:24;;;;;;;;;;;;;;;-144.51;100.00;69251.94;4886774;29;19923;-77
2021/10/21 06:44:08;;;;;;;;;;;;;;;-144.51;100.00;69251.94;4888066;29;19919;-78
2021/10/21 06:46:52;;;;;;;;;;;;;;;-144.51;100.00;69251.94;4887704;29;19915;-78
2021/10/21 06:49:37;;;;;;;;;;;;;;;-144.51;100.00;69251.94;4888259;29;19915;-78
2021/10/21 06:52:21;;;;;;;;;;;;;;;-144.51;100.00;69251.94;4887601;29;19916;-79
2021/10/21 06:55:06;;;;;;;;;;;;;;;-144.51;100.00;69251.94;4878092;29;19920;-80
2021/10/21 06:57:51;;;;;;;;;;;;;;;-144.51;100.00;69251.94;4893749;29;20380;-80
2021/10/21 07:00:39;;;;;;;;;;;;;;;-144.51;100.00;69251.94;4906033;29;20446;-80
2021/10/21 07:03:23;;;;;;;;;;;;;;;-144.51;100.00;69251.94;4916528;29;19915;-80
2021/10/21 07:06:07;;;;;;;;;;;;;;;-144.51;100.00;69251.94;4907735;29;19915;-81
2021/10/21 07:08:53;;;;;;;;;;;;;;;-144.51;100.00;69251.94;4928495;29;19915;-79
2021/10/21 07:11:38;;;;;;;;;;;;;;;-144.51;100.00;69251.94;4915443;29;19915;-79
2021/10/21 07:14:23;;;;;;;;;;;;;;;-144.51;100.00;69251.94;4917717;29;19915;-78
2021/10/21 07:17:07;;;;;;;;;;;;;;;-144.51;100.00;69251.94;4915732;29;19919;-79
2021/10/21 07:19:52;;;;;;;;;;;;;;;-144.51;100.00;69251.94;4915213;29;19915;-80
2021/10/21 07:22:36;;;;;;;;;;;;;;;-144.51;100.00;69251.94;4904670;29;19915;-80
2021/10/21 07:25:22;;;;;;;;;;;;;;;-144.51;100.00;69251.94;4915480;29;19919;-79
2021/10/21 07:28:07;;;;;;;;;;;;;;;-144.51;100.00;69251.94;4917842;29;19915;-79
2021/10/21 07:30:57;;;;;;;;;;;;;;;-144.51;100.00;69251.94;4918029;29;19915;-78
2021/10/21 07:33:42;;;;;;;;;;;;;;;-144.51;100.00;69251.94;4902821;29;19922;-79
2021/10/21 07:36:26;;;;;;;;;;;;;;;-144.51;100.00;69251.94;4921250;29;19915;-79
2021/10/21 07:39:12;;;;;;;;;;;;;;;-144.51;100.00;69251.94;4915550;29;19919;-79
2021/10/21 07:42:00;;;;;;;;;;;;;;;-144.51;100.00;69251.94;4915896;29;19915;-78
2021/10/21 07:44:46;;;;;;;;;;;;;;;-144.51;100.00;69251.94;4923794;29;19915;-78
2021/10/21 07:47:30;;;;;;;;;;;;;;;-144.51;100.00;69251.94;4908104;29;19915;-77
2021/10/21 07:50:17;;;;;;;;;;;;;;;-144.51;100.00;69251.94;4911443;29;20289;-78
2021/10/21 07:53:02;;;;;;;;;;;;;;;-144.51;100.00;69251.94;4916340;29;19916;-78
2021/10/21 07:55:46;;;;;;;;;;;;;;;-144.51;100.00;69251.94;4900076;29;19915;-81
2021/10/21 07:58:31;;;;;;;;;;;;;;;-144.51;100.00;69251.94;4904568;29;19920;-80
2021/10/21 08:01:15;;;;;;;;;;;;;;;-144.51;100.00;69251.94;4900056;29;19915;-78
2021/10/21 08:04:00;;;;;;;;;;;;;;;-144.51;100.00;69251.94;4904089;29;19915;-84
2021/10/21 08:06:45;;;;;;;;;;;;;;;-144.51;100.00;69251.94;4907576;29;19915;-81
2021/10/21 08:09:31;;;;;;;;;;;;;;;-144.51;100.00;69251.94;4901540;29;19915;-83
2021/10/21 08:12:15;;;;;;;;;;;;;;;-144.51;100.00;69251.94;4893972;29;19915;-84
2021/10/21 08:15:00;;;;;;;;;;;;;;;-144.51;100.00;69251.94;4910836;29;19914;-86
2021/10/21 08:17:44;;;;;;;;;;;;;;;-144.51;100.00;69251.94;4881722;29;19920;-82
2021/10/21 08:20:29;;;;;;;;;;;;;;;-144.51;100.00;69251.94;4874397;29;19916;-84
2021/10/21 08:23:14;;;;;;;;;;;;;;;-144.51;100.00;69251.94;4877218;29;19915;-88
2021/10/21 08:25:59;;;;;;;;;;;;;;;-144.51;100.00;69251.94;4876565;29;19916;-84
2021/10/21 08:28:46;;;;;;;;;;;;;;;-144.51;100.00;69251.94;4884441;29;19916;-85
2021/10/21 08:31:31;;;;;;;;;;;;;;;-144.51;100.00;69251.94;4876818;29;19916;-83
2021/10/21 08:34:15;;;;;;;;;;;;;;;-144.51;100.00;69251.94;4883495;29;19916;-83
2021/10/21 08:37:00;;;;;;;;;;;;;;;-144.51;100.00;69251.94;4888468;29;19916;-86
2021/10/21 08:40:10;;;;;;;;;;;;;;;-144.51;100.00;69251.94;4872209;29;19916;-84
2021/10/21 08:42:54;;;;;;;;;;;;;;;-144.51;100.00;69251.94;4887798;29;20297;-85
2021/10/21 08:45:39;;;;;;;;;;;;;;;-144.51;100.00;69251.94;4875261;29;19920;-84
2021/10/21 08:48:23;;;;;;;;;;;;;;;-144.51;100.00;69251.94;4893095;29;19916;-81
2021/10/21 08:51:09;;;;;;;;;;;;;;;-144.51;100.00;69251.94;4895798;29;19918;-84
2021/10/21 08:53:54;;;;;;;;;;;;;;;-144.51;100.00;69251.94;4889135;29;19916;-83
2021/10/21 08:56:38;;;;;;;;;;;;;;;-144.51;100.00;69251.94;4887597;29;20273;-83
2021/10/21 08:59:23;;;;;;;;;;;;;;;-144.51;100.00;69251.94;4898915;29;19920;-84
2021/10/21 09:05:50;;;;;;;;;;;;;;;-144.51;100.00;69251.94;4899227;29;20380;-85
2021/10/21 09:08:22;;;;;;;;;;;;;;;-144.51;100.00;69251.94;4900125;29;19916;-86
2021/10/21 09:11:06;;;;;;;;;;;;;;;-144.51;100.00;69251.94;4898855;29;19919;-85
2021/10/21 09:14:14;;;;;;;;;;;;;;;-144.51;100.00;69251.94;4899382;29;19915;-84
2021/10/21 09:16:59;;;;;;;;;;;;;;;-144.51;100.00;69251.94;4897816;29;19915;-84
2021/10/21 09:19:45;;;;;;;;;;;;;;;-144.51;100.00;69251.94;4886879;29;19919;-84
2021/10/21 09:22:30;;;;;;;;;;;;;;;-144.51;100.00;69251.94;4885079;29;19916;-84
2021/10/21 09:25:21;;;;;;;;;;;;;;;-144.51;100.00;69251.94;4888895;29;20393;-84
2021/10/21 09:28:25;;;;;;;;;;;;;;;-144.51;100.00;69251.94;4904722;29;19915;-83
2021/10/21 09:31:12;;;;;;;;;;;;;;;-144.51;100.00;69251.94;4889390;29;19915;-83
2021/10/21 09:33:56;;;;;;;;;;;;;;;-144.51;100.00;69251.94;4900564;29;19919;-83
2021/10/21 09:36:41;;;;;;;;;;;;;;;-144.51;100.00;69251.94;4885571;29;19917;-84
2021/10/21 09:39:25;;;;;;;;;;;;;;;-144.51;100.00;69251.94;4902338;29;19919;-83
2021/10/21 09:42:11;;;;;;;;;;;;;;;-144.51;100.00;69251.94;4886114;29;19916;-83
2021/10/21 09:45:13;;;;;;;;;;;;;;;-144.51;100.00;69251.94;4895473;29;19915;-84
2021/10/21 09:47:58;;;;;;;;;;;;;;;-144.51;100.00;69251.94;4899836;29;19915;-84
2021/10/21 09:50:45;;;;;;;;;;;;;;;-144.51;100.00;69251.94;4900321;29;20384;-84
2021/10/21 09:53:33;;;;;;;;;;;;;;;-144.51;100.00;69251.94;4897108;29;20296;-84
2021/10/21 09:56:17;;;;;;;;;;;;;;;-144.51;100.00;69251.94;4896978;29;19915;-84
2021/10/21 09:59:06;;;;;;;;;;;;;;;-144.51;100.00;69251.94;4884392;29;20300;-83
2021/10/21 10:01:52;;;;;;;;;;;;;;;-144.51;100.00;69251.94;4897692;29;19915;-84
2021/10/21 10:04:36;;;;;;;;;;;;;;;-144.51;100.00;69251.94;4887919;29;20389;-83
2021/10/21 10:07:25;;;;;;;;;;;;;;;-144.51;100.00;69251.94;4898938;29;19915;-84
2021/10/21 10:10:09;;;;;;;;;;;;;;;-144.51;100.00;69251.94;4884740;29;20332;-84
2021/10/21 10:12:54;;;;;;;;;;;;;;;-144.51;100.00;69251.94;4888242;29;19916;-84
2021/10/21 10:15:43;;;;;;;;;;;;;;;-144.51;100.00;69251.94;4899259;29;19916;-86
2021/10/21 10:18:29;;;;;;;;;;;;;;;-144.51;100.00;69251.94;4935466;23;19924;-64
2021/10/21 10:21:18;;;;;;;;;;;;;;;-144.51;100.00;69251.94;4902825;29;20371;-64
2021/10/21 10:24:06;;;;;;;;;;;;;;;-144.51;100.00;69251.94;4896670;29;19915;-62
2021/10/21 10:26:54;;;;;;;;;;;;;;;-144.51;100.00;69251.94;4897402;29;19915;-64
2021/10/21 10:29:40;;;;;;;;;;;;;;;-144.51;100.00;69251.94;4897549;29;20383;-64
2021/10/21 10:32:28;;;;;;;;;;;;;;;-144.51;100.00;69251.94;4897153;29;20300;-64
2021/10/21 10:35:13;;;;;;;;;;;;;;;-144.51;100.00;69251.94;4911419;29;19915;-64
2021/10/21 10:37:59;;;;;;;;;;;;;;;-144.51;100.00;69251.94;4911829;29;19923;-64
2021/10/21 10:40:55;;;;;;;;;;;;;;;-144.51;100.00;69251.94;4913408;29;19915;-64
2021/10/21 10:43:41;;;;;;;;;;;;;;;-144.51;100.00;69251.94;4908941;29;19923;-64
2021/10/21 10:46:58;;;;;;;;;;;;;;;-144.51;100.00;69251.94;4912518;29;19915;-64
2021/10/21 10:49:43;;;;;;;;;;;;;;;-144.51;100.00;69251.94;4871360;29;19914;-64
2021/10/21 10:52:44;;;;;;;;;;;;;;;-144.51;100.00;69251.94;4903920;29;19919;-64
2021/10/21 10:55:41;;;;;;;;;;;;;;;-144.51;100.00;69251.94;4909837;29;19915;-64
2021/10/21 10:58:26;;;;;;;;;;;;;;;-144.51;100.00;69251.94;4909657;29;20005;-64
2021/10/21 11:01:27;;;;;;;;;;;;;;;-144.51;100.00;69251.94;4908051;29;20375;-64
2021/10/21 11:04:12;;;;;;;;;;;;;;;-144.51;100.00;69251.94;4915019;29;20379;-64
2021/10/21 11:07:06;;;;;;;;;;;;;;;-144.51;100.00;69251.94;4912069;29;19915;-64
2021/10/21 11:09:51;;;;;;;;;;;;;;;-144.51;100.00;69251.94;4915830;29;19915;-64
2021/10/21 11:12:36;;;;;;;;;;;;;;;-144.51;100.00;69251.94;4916108;29;20295;-64
2021/10/21 11:15:29;;;;;;;;;;;;;;;-144.51;100.00;69251.94;4914889;29;19915;-64
2021/10/21 11:18:22;;;;;;;;;;;;;;;-144.51;100.00;69251.94;4917160;29;19919;-63
2021/10/21 11:21:07;;;;;;;;;;;;;;;-144.51;100.00;69251.94;4917129;29;20377;-64
2021/10/21 11:23:54;;;;;;;;;;;;;;;-144.51;100.00;69251.94;4918346;29;19915;-64
2021/10/21 11:26:40;;;;;;;;;;;;;;;-144.51;100.00;69251.94;4919286;29;20378;-64
2021/10/21 11:29:24;;;;;;;;;;;;;;;-144.51;100.00;69251.94;4919544;29;19915;-64
2021/10/21 11:32:09;;;;;;;;;;;;;;;-144.51;100.00;69251.94;4914198;29;19915;-64
2021/10/21 11:34:54;;;;;;;;;;;;;;;-144.51;100.00;69251.94;4916094;29;19916;-64
2021/10/21 11:37:38;;;;;;;;;;;;;;;-144.51;100.00;69251.94;4911810;29;19915;-64
2021/10/21 11:40:25;;;;;;;;;;;;;;;-144.51;100.00;69251.94;4924799;29;19914;-63
2021/10/21 11:46:20;;;;;;;;;;;;;;;-144.51;100.00;69251.94;4926486;29;20278;-64
2021/10/21 11:49:05;;;;;;;;;;;;;;;-144.51;100.00;69251.94;4930254;29;19915;-64
2021/10/21 11:52:00;;;;;;;;;;;;;;;-144.51;100.00;69251.94;4928727;29;19915;-64
2021/10/21 11:54:46;;;;;;;;;;;;;;;-144.51;100.00;69251.94;4922278;29;19915;-64
2021/10/21 11:57:32;;;;;;;;;;;;;;;-144.51;100.00;69251.94;4924986;29;19915;-64
2021/10/21 12:00:27;;;;;;;;;;;;;;;-144.51;100.00;69251.94;4926155;29;19919;-64
2021/10/21 12:03:12;;;;;;;;;;;;;;;-144.51;100.00;69251.94;4905259;29;19919;-64
2021/10/21 12:05:57;;;;;;;;;;;;;;;-144.51;100.00;69251.94;4912645;29;19915;-63
2021/10/21 12:09:08;;;;;;;;;;;;;;;-144.51;100.00;69251.94;4907684;29;20375;-64
2021/10/21 12:12:01;;;;;;;;;;;;;;;-144.51;100.00;69251.94;4920133;29;19915;-63
2021/10/21 12:14:46;;;;;;;;;;;;;;;-144.51;100.00;69251.94;4914260;29;20375;-64
2021/10/21 12:17:30;;;;;;;;;;;;;;;-144.51;100.00;69251.94;4916801;29;19915;-64
2021/10/21 12:20:28;;;;;;;;;;;;;;;-144.51;100.00;69251.94;4918573;29;19926;-64
2021/10/21 12:23:17;;;;;;;;;;;;;;;-144.51;100.00;69251.94;4917725;29;19914;-64
2021/10/21 12:26:06;;;;;;;;;;;;;;;-144.51;100.00;69251.94;4918576;29;19919;-64
2021/10/21 12:28:52;;;;;;;;;;;;;;;-144.51;100.00;69251.94;4918834;29;19915;-64
2021/10/21 12:31:38;;;;;;;;;;;;;;;-144.51;100.00;69251.94;4918611;29;19915;-64
2021/10/21 12:34:24;;;;;;;;;;;;;;;-144.51;100.00;69251.94;4918508;29;20280;-64
2021/10/21 12:37:13;;;;;;;;;;;;;;;-144.51;100.00;69251.94;4918227;29;19915;-64
2021/10/21 12:40:16;;;;;;;;;;;;;;;-144.51;100.00;69251.94;4918376;29;19919;-64
2021/10/21 12:43:14;;;;;;;;;;;;;;;-144.51;100.00;69251.94;4914934;29;20302;-64
2021/10/21 12:46:04;;;;;;;;;;;;;;;-144.51;100.00;69251.94;4913936;29;19922;-64
2021/10/21 12:49:06;;;;;;;;;;;;;;;-144.51;100.00;69251.94;4921156;29;19915;-64
2021/10/21 12:51:51;;;;;;;;;;;;;;;-144.51;100.00;69251.94;4923695;29;19915;-64
2021/10/21 12:54:36;;;;;;;;;;;;;;;-144.51;100.00;69251.94;4915701;29;19915;-64
2021/10/21 12:57:21;;;;;;;;;;;;;;;-144.51;100.00;69251.94;4912209;29;19915;-64
2021/10/21 13:00:06;;;;;;;;;;;;;;;-144.51;100.00;69251.94;4901501;29;19919;-64
2021/10/21 13:03:13;;;;;;;;;;;;;;;-144.51;100.00;69251.94;4899240;29;19915;-64
2021/10/21 13:05:58;;;;;;;;;;;;;;;-144.51;100.00;69251.94;4898791;29;19927;-64
2021/10/21 13:08:42;;;;;;;;;;;;;;;-144.51;100.00;69251.94;4898893;29;19915;-64
2021/10/21 13:11:28;;;;;;;;;;;;;;;-144.51;100.00;69251.94;4898784;29;20364;-64
2021/10/21 13:14:13;;;;;;;;;;;;;;;-144.51;100.00;69251.94;4898959;29;20260;-64
2021/10/21 13:16:58;;;;;;;;;;;;;;;-144.51;100.00;69251.94;4898756;29;19916;-64
2021/10/21 13:19:42;;;;;;;;;;;;;;;-144.51;100.00;69251.94;4898561;29;19919;-64
2021/10/21 13:22:27;;;;;;;;;;;;;;;-144.51;100.00;69251.94;4898609;29;19916;-63
2021/10/21 13:25:13;;;;;;;;;;;;;;;-144.51;100.00;69251.94;4898704;29;19916;-64
2021/10/21 13:27:57;;;;;;;;;;;;;;;-144.51;100.00;69251.94;4898642;29;19916;-64
2021/10/21 13:30:42;;;;;;;;;;;;;;;-144.51;100.00;69251.94;4898474;29;19915;-64
2021/10/21 13:33:26;;;;;;;;;;;;;;;-144.51;100.00;69251.94;4898493;29;20372;-64
2021/10/21 13:36:11;;;;;;;;;;;;;;;-144.51;100.00;69251.94;4898418;29;19915;-64
2021/10/21 13:38:55;;;;;;;;;;;;;;;-144.51;100.00;69251.94;4898327;29;20323;-64
2021/10/21 13:41:40;;;;;;;;;;;;;;;-144.51;100.00;69251.94;4897902;29;19916;-64
2021/10/21 13:44:24;;;;;;;;;;;;;;;-144.51;100.00;69251.94;4898409;29;19915;-65
2021/10/21 13:47:09;;;;;;;;;;;;;;;-144.51;100.00;69251.94;4898157;29;19933;-64
2021/10/21 13:49:53;;;;;;;;;;;;;;;-144.51;100.00;69251.94;4898237;29;19915;-64
2021/10/21 13:52:38;;;;;;;;;;;;;;;-144.51;100.00;69251.94;4898166;29;20315;-64
2021/10/21 13:55:22;;;;;;;;;;;;;;;-144.51;100.00;69251.94;4898014;29;19916;-64
2021/10/21 13:58:07;;;;;;;;;;;;;;;-144.51;100.00;69251.94;4903447;29;20320;-64
2021/10/21 14:00:51;;;;;;;;;;;;;;;-144.51;100.00;69251.94;4898087;29;19916;-64